sensor_id;sensor_type;location;lat;lon;timestamp;temperature;humidity
8910;DHT22;4490;49.072;8.804;2023-05-14T00:01:34;13.40;99.90
8910;DHT22;4490;49.072;8.804;2023-05-14T00:04:01;13.40;99.90
8910;DHT22;4490;49.072;8.804;2023-05-14T00:06:26;13.40;99.90
8910;DHT22;4490;49.072;8.804;2023-05-14T00:08:52;13.40;99.90
8910;DHT22;4490;49.072;8.804;2023-05-14T00:11:17;13.40;99.90
8910;DHT22;4490;49.072;8.804;2023-05-14T00:13:43;13.40;99.90
8910;DHT22;4490;49.072;8.804;2023-05-14T00:16:10;13.40;99.90
8910;DHT22;4490;49.072;8.804;2023-05-14T00:18:36;13.30;99.90
8910;DHT22;4490;49.072;8.804;2023-05-14T00:21:01;13.30;99.90
8910;DHT22;4490;49.072;8.804;2023-05-14T00:23:27;13.20;99.90
8910;DHT22;4490;49.072;8.804;2023-05-14T00:25:53;13.20;99.90
8910;DHT22;4490;49.072;8.804;2023-05-14T00:28:19;13.20;99.90
8910;DHT22;4490;49.072;8.804;2023-05-14T00:30:45;13.20;99.90
8910;DHT22;4490;49.072;8.804;2023-05-14T00:33:10;13.10;99.90
8910;DHT22;4490;49.072;8.804;2023-05-14T00:35:36;13.10;99.90
8910;DHT22;4490;49.072;8.804;2023-05-14T00:38:02;13.10;99.90
8910;DHT22;4490;49.072;8.804;2023-05-14T00:40:28;13.00;99.90
8910;DHT22;4490;49.072;8.804;2023-05-14T00:42:54;12.90;99.90
8910;DHT22;4490;49.072;8.804;2023-05-14T00:45:20;12.90;99.90
8910;DHT22;4490;49.072;8.804;2023-05-14T00:47:47;12.80;99.90
8910;DHT22;4490;49.072;8.804;2023-05-14T00:50:14;12.70;99.90
8910;DHT22;4490;49.072;8.804;2023-05-14T00:52:41;12.60;99.90
8910;DHT22;4490;49.072;8.804;2023-05-14T00:55:07;12.50;99.90
8910;DHT22;4490;49.072;8.804;2023-05-14T00:57:34;12.50;99.90
8910;DHT22;4490;49.072;8.804;2023-05-14T01:00:01;12.40;99.90
8910;DHT22;4490;49.072;8.804;2023-05-14T01:02:27;12.40;99.90
8910;DHT22;4490;49.072;8.804;2023-05-14T01:04:53;12.30;99.90
8910;DHT22;4490;49.072;8.804;2023-05-14T01:10:23;12.20;99.90
8910;DHT22;4490;49.072;8.804;2023-05-14T01:13:25;12.20;99.90
8910;DHT22;4490;49.072;8.804;2023-05-14T01:15:46;12.10;99.90
8910;DHT22;4490;49.072;8.804;2023-05-14T01:18:15;12.00;99.90
8910;DHT22;4490;49.072;8.804;2023-05-14T01:20:42;12.00;99.90
8910;DHT22;4490;49.072;8.804;2023-05-14T01:23:08;11.90;99.90
8910;DHT22;4490;49.072;8.804;2023-05-14T01:25:34;11.90;99.90
8910;DHT22;4490;49.072;8.804;2023-05-14T01:28:03;11.90;99.90
8910;DHT22;4490;49.072;8.804;2023-05-14T01:30:36;11.80;99.90
8910;DHT22;4490;49.072;8.804;2023-05-14T01:33:13;11.80;99.90
8910;DHT22;4490;49.072;8.804;2023-05-14T01:35:41;11.80;99.90
8910;DHT22;4490;49.072;8.804;2023-05-14T01:38:10;11.80;99.90
8910;DHT22;4490;49.072;8.804;2023-05-14T01:40:36;11.80;99.90
8910;DHT22;4490;49.072;8.804;2023-05-14T01:43:03;11.80;99.90
8910;DHT22;4490;49.072;8.804;2023-05-14T01:45:30;11.70;99.90
8910;DHT22;4490;49.072;8.804;2023-05-14T01:47:55;11.70;99.90
8910;DHT22;4490;49.072;8.804;2023-05-14T01:50:21;11.60;99.90
8910;DHT22;4490;49.072;8.804;2023-05-14T01:52:47;11.60;99.90
8910;DHT22;4490;49.072;8.804;2023-05-14T01:55:13;11.60;99.90
8910;DHT22;4490;49.072;8.804;2023-05-14T01:57:39;11.50;99.90
8910;DHT22;4490;49.072;8.804;2023-05-14T02:00:05;11.50;99.90
8910;DHT22;4490;49.072;8.804;2023-05-14T02:02:31;11.40;99.90
8910;DHT22;4490;49.072;8.804;2023-05-14T02:04:57;11.40;99.90
8910;DHT22;4490;49.072;8.804;2023-05-14T02:07:22;11.40;99.90
8910;DHT22;4490;49.072;8.804;2023-05-14T02:09:48;11.40;99.90
8910;DHT22;4490;49.072;8.804;2023-05-14T02:12:13;11.30;99.90
8910;DHT22;4490;49.072;8.804;2023-05-14T02:14:39;11.30;99.90
8910;DHT22;4490;49.072;8.804;2023-05-14T02:17:04;11.30;99.90
8910;DHT22;4490;49.072;8.804;2023-05-14T02:19:30;11.30;99.90
8910;DHT22;4490;49.072;8.804;2023-05-14T02:21:56;11.30;99.90
8910;DHT22;4490;49.072;8.804;2023-05-14T02:24:21;11.30;99.90
8910;DHT22;4490;49.072;8.804;2023-05-14T02:26:47;11.20;99.90
8910;DHT22;4490;49.072;8.804;2023-05-14T02:29:12;11.20;99.90
8910;DHT22;4490;49.072;8.804;2023-05-14T02:31:38;11.20;99.90
8910;DHT22;4490;49.072;8.804;2023-05-14T02:34:04;11.10;99.90
8910;DHT22;4490;49.072;8.804;2023-05-14T02:36:33;11.10;99.90
8910;DHT22;4490;49.072;8.804;2023-05-14T02:38:59;11.10;99.90
8910;DHT22;4490;49.072;8.804;2023-05-14T02:41:25;11.00;99.90
8910;DHT22;4490;49.072;8.804;2023-05-14T02:43:52;11.00;99.90
8910;DHT22;4490;49.072;8.804;2023-05-14T02:46:17;11.00;99.90
8910;DHT22;4490;49.072;8.804;2023-05-14T02:48:43;11.00;99.90
8910;DHT22;4490;49.072;8.804;2023-05-14T02:51:09;11.00;99.90
8910;DHT22;4490;49.072;8.804;2023-05-14T02:53:35;11.00;99.90
8910;DHT22;4490;49.072;8.804;2023-05-14T02:56:00;10.90;99.90
8910;DHT22;4490;49.072;8.804;2023-05-14T02:58:26;10.90;99.90
8910;DHT22;4490;49.072;8.804;2023-05-14T03:00:52;10.80;99.90
8910;DHT22;4490;49.072;8.804;2023-05-14T03:03:18;10.80;99.90
8910;DHT22;4490;49.072;8.804;2023-05-14T03:05:43;10.80;99.90
8910;DHT22;4490;49.072;8.804;2023-05-14T03:08:09;10.80;99.90
8910;DHT22;4490;49.072;8.804;2023-05-14T03:10:35;10.70;99.90
8910;DHT22;4490;49.072;8.804;2023-05-14T03:13:00;10.70;99.90
8910;DHT22;4490;49.072;8.804;2023-05-14T03:15:26;10.70;99.90
8910;DHT22;4490;49.072;8.804;2023-05-14T03:17:51;10.70;99.90
8910;DHT22;4490;49.072;8.804;2023-05-14T03:20:17;10.60;99.90
8910;DHT22;4490;49.072;8.804;2023-05-14T03:22:43;10.60;99.90
8910;DHT22;4490;49.072;8.804;2023-05-14T03:25:08;10.60;99.90
8910;DHT22;4490;49.072;8.804;2023-05-14T03:27:34;10.50;99.90
8910;DHT22;4490;49.072;8.804;2023-05-14T03:30:00;10.50;99.90
8910;DHT22;4490;49.072;8.804;2023-05-14T03:32:25;10.50;99.90
8910;DHT22;4490;49.072;8.804;2023-05-14T03:34:51;10.50;99.90
8910;DHT22;4490;49.072;8.804;2023-05-14T03:37:17;10.50;99.90
8910;DHT22;4490;49.072;8.804;2023-05-14T03:39:42;10.50;99.90
8910;DHT22;4490;49.072;8.804;2023-05-14T03:42:08;10.50;99.90
8910;DHT22;4490;49.072;8.804;2023-05-14T03:44:33;10.40;99.90
8910;DHT22;4490;49.072;8.804;2023-05-14T03:47:00;10.50;99.90
8910;DHT22;4490;49.072;8.804;2023-05-14T03:49:25;10.50;99.90
8910;DHT22;4490;49.072;8.804;2023-05-14T03:51:51;10.50;99.90
8910;DHT22;4490;49.072;8.804;2023-05-14T03:54:16;10.50;99.90
8910;DHT22;4490;49.072;8.804;2023-05-14T03:56:42;10.50;99.90
8910;DHT22;4490;49.072;8.804;2023-05-14T03:59:07;10.50;99.90
8910;DHT22;4490;49.072;8.804;2023-05-14T04:01:33;10.50;99.90
8910;DHT22;4490;49.072;8.804;2023-05-14T04:03:58;10.50;99.90
8910;DHT22;4490;49.072;8.804;2023-05-14T04:06:24;10.50;99.90
8910;DHT22;4490;49.072;8.804;2023-05-14T04:08:50;10.60;99.90
8910;DHT22;4490;49.072;8.804;2023-05-14T04:11:15;10.60;99.90
8910;DHT22;4490;49.072;8.804;2023-05-14T04:13:41;10.60;99.90
8910;DHT22;4490;49.072;8.804;2023-05-14T04:16:06;10.60;99.90
8910;DHT22;4490;49.072;8.804;2023-05-14T04:18:32;10.60;99.90
8910;DHT22;4490;49.072;8.804;2023-05-14T04:21:01;10.60;99.90
8910;DHT22;4490;49.072;8.804;2023-05-14T04:23:27;10.60;99.90
8910;DHT22;4490;49.072;8.804;2023-05-14T04:25:53;10.60;99.90
8910;DHT22;4490;49.072;8.804;2023-05-14T04:28:18;10.70;99.90
8910;DHT22;4490;49.072;8.804;2023-05-14T04:30:44;10.70;99.90
8910;DHT22;4490;49.072;8.804;2023-05-14T04:33:10;10.70;99.90
8910;DHT22;4490;49.072;8.804;2023-05-14T04:35:35;10.70;99.90
8910;DHT22;4490;49.072;8.804;2023-05-14T04:38:01;10.80;99.90
8910;DHT22;4490;49.072;8.804;2023-05-14T04:40:27;10.80;99.90
8910;DHT22;4490;49.072;8.804;2023-05-14T04:42:53;10.80;99.90
8910;DHT22;4490;49.072;8.804;2023-05-14T04:45:18;10.80;99.90
8910;DHT22;4490;49.072;8.804;2023-05-14T04:47:45;10.80;99.90
8910;DHT22;4490;49.072;8.804;2023-05-14T04:50:11;10.90;99.90
8910;DHT22;4490;49.072;8.804;2023-05-14T04:52:37;10.90;99.90
8910;DHT22;4490;49.072;8.804;2023-05-14T04:55:03;10.90;99.90
8910;DHT22;4490;49.072;8.804;2023-05-14T04:57:29;10.90;99.90
8910;DHT22;4490;49.072;8.804;2023-05-14T04:59:54;11.00;99.90
8910;DHT22;4490;49.072;8.804;2023-05-14T05:02:20;11.00;99.90
8910;DHT22;4490;49.072;8.804;2023-05-14T05:04:46;11.00;99.90
8910;DHT22;4490;49.072;8.804;2023-05-14T05:07:11;11.10;99.90
8910;DHT22;4490;49.072;8.804;2023-05-14T05:09:37;11.10;99.90
8910;DHT22;4490;49.072;8.804;2023-05-14T05:12:03;11.10;99.90
8910;DHT22;4490;49.072;8.804;2023-05-14T05:14:29;11.10;99.90
8910;DHT22;4490;49.072;8.804;2023-05-14T05:16:55;11.20;99.90
8910;DHT22;4490;49.072;8.804;2023-05-14T05:19:20;11.20;99.90
8910;DHT22;4490;49.072;8.804;2023-05-14T05:21:46;11.20;99.90
8910;DHT22;4490;49.072;8.804;2023-05-14T05:24:12;11.30;99.90
8910;DHT22;4490;49.072;8.804;2023-05-14T05:26:37;11.30;99.90
8910;DHT22;4490;49.072;8.804;2023-05-14T05:29:03;11.30;99.90
8910;DHT22;4490;49.072;8.804;2023-05-14T05:31:30;11.40;99.90
8910;DHT22;4490;49.072;8.804;2023-05-14T05:33:57;11.40;99.90
8910;DHT22;4490;49.072;8.804;2023-05-14T05:36:23;11.40;99.90
8910;DHT22;4490;49.072;8.804;2023-05-14T05:38:49;11.50;99.90
8910;DHT22;4490;49.072;8.804;2023-05-14T05:41:15;11.50;99.90
8910;DHT22;4490;49.072;8.804;2023-05-14T05:43:41;11.60;99.90
8910;DHT22;4490;49.072;8.804;2023-05-14T05:46:06;11.70;99.90
8910;DHT22;4490;49.072;8.804;2023-05-14T05:48:32;11.70;99.90
8910;DHT22;4490;49.072;8.804;2023-05-14T05:50:57;11.80;99.90
8910;DHT22;4490;49.072;8.804;2023-05-14T05:53:23;11.90;99.90
8910;DHT22;4490;49.072;8.804;2023-05-14T05:55:49;12.00;99.90
8910;DHT22;4490;49.072;8.804;2023-05-14T05:58:17;12.10;99.90
8910;DHT22;4490;49.072;8.804;2023-05-14T06:00:44;12.10;99.90
8910;DHT22;4490;49.072;8.804;2023-05-14T06:03:10;12.20;99.90
8910;DHT22;4490;49.072;8.804;2023-05-14T06:05:35;12.20;99.90
8910;DHT22;4490;49.072;8.804;2023-05-14T06:08:01;12.30;99.90
8910;DHT22;4490;49.072;8.804;2023-05-14T06:10:27;12.30;99.90
8910;DHT22;4490;49.072;8.804;2023-05-14T06:12:52;12.40;99.90
8910;DHT22;4490;49.072;8.804;2023-05-14T06:15:18;12.40;99.90
8910;DHT22;4490;49.072;8.804;2023-05-14T06:17:44;12.40;99.90
8910;DHT22;4490;49.072;8.804;2023-05-14T06:20:10;12.40;99.90
8910;DHT22;4490;49.072;8.804;2023-05-14T06:22:36;12.40;99.90
8910;DHT22;4490;49.072;8.804;2023-05-14T06:25:02;12.50;99.90
8910;DHT22;4490;49.072;8.804;2023-05-14T06:27:28;12.50;99.90
8910;DHT22;4490;49.072;8.804;2023-05-14T06:29:53;12.50;99.90
8910;DHT22;4490;49.072;8.804;2023-05-14T06:32:19;12.50;99.90
8910;DHT22;4490;49.072;8.804;2023-05-14T06:34:44;12.50;99.90
8910;DHT22;4490;49.072;8.804;2023-05-14T06:37:10;12.60;99.90
8910;DHT22;4490;49.072;8.804;2023-05-14T06:39:37;12.70;99.90
8910;DHT22;4490;49.072;8.804;2023-05-14T06:42:03;12.80;99.90
8910;DHT22;4490;49.072;8.804;2023-05-14T06:44:28;12.80;99.90
8910;DHT22;4490;49.072;8.804;2023-05-14T06:46:54;12.90;99.90
8910;DHT22;4490;49.072;8.804;2023-05-14T06:49:19;13.00;99.90
8910;DHT22;4490;49.072;8.804;2023-05-14T06:51:45;13.10;99.90
8910;DHT22;4490;49.072;8.804;2023-05-14T06:54:11;13.20;99.90
8910;DHT22;4490;49.072;8.804;2023-05-14T06:56:37;13.30;99.90
8910;DHT22;4490;49.072;8.804;2023-05-14T06:59:02;13.40;99.90
8910;DHT22;4490;49.072;8.804;2023-05-14T07:01:28;13.50;99.90
8910;DHT22;4490;49.072;8.804;2023-05-14T07:03:54;13.60;99.90
8910;DHT22;4490;49.072;8.804;2023-05-14T07:06:21;13.60;99.90
8910;DHT22;4490;49.072;8.804;2023-05-14T07:08:47;13.70;99.90
8910;DHT22;4490;49.072;8.804;2023-05-14T07:11:13;13.70;99.90
8910;DHT22;4490;49.072;8.804;2023-05-14T07:13:39;13.80;99.90
8910;DHT22;4490;49.072;8.804;2023-05-14T07:16:06;14.00;99.90
8910;DHT22;4490;49.072;8.804;2023-05-14T07:18:32;14.10;99.90
8910;DHT22;4490;49.072;8.804;2023-05-14T07:20:57;14.30;99.90
8910;DHT22;4490;49.072;8.804;2023-05-14T07:23:23;14.40;99.90
8910;DHT22;4490;49.072;8.804;2023-05-14T07:25:48;14.60;99.90
8910;DHT22;4490;49.072;8.804;2023-05-14T07:28:14;14.80;99.90
8910;DHT22;4490;49.072;8.804;2023-05-14T07:30:40;15.00;99.90
8910;DHT22;4490;49.072;8.804;2023-05-14T07:33:05;15.20;99.90
8910;DHT22;4490;49.072;8.804;2023-05-14T07:35:31;15.40;99.90
8910;DHT22;4490;49.072;8.804;2023-05-14T07:37:56;15.50;99.90
8910;DHT22;4490;49.072;8.804;2023-05-14T07:40:22;15.60;99.90
8910;DHT22;4490;49.072;8.804;2023-05-14T07:42:49;15.70;99.90
8910;DHT22;4490;49.072;8.804;2023-05-14T07:45:15;15.80;99.90
8910;DHT22;4490;49.072;8.804;2023-05-14T07:47:41;15.90;99.90
8910;DHT22;4490;49.072;8.804;2023-05-14T07:50:07;16.00;99.90
8910;DHT22;4490;49.072;8.804;2023-05-14T07:52:33;16.10;99.90
8910;DHT22;4490;49.072;8.804;2023-05-14T07:54:59;16.20;99.90
8910;DHT22;4490;49.072;8.804;2023-05-14T07:57:25;16.30;99.90
8910;DHT22;4490;49.072;8.804;2023-05-14T07:59:51;16.40;99.90
8910;DHT22;4490;49.072;8.804;2023-05-14T08:02:17;16.50;99.90
8910;DHT22;4490;49.072;8.804;2023-05-14T08:04:42;16.60;99.90
8910;DHT22;4490;49.072;8.804;2023-05-14T08:07:08;16.70;99.90
8910;DHT22;4490;49.072;8.804;2023-05-14T08:09:34;16.90;99.90
8910;DHT22;4490;49.072;8.804;2023-05-14T08:11:59;17.00;99.90
8910;DHT22;4490;49.072;8.804;2023-05-14T08:14:25;17.20;99.90
8910;DHT22;4490;49.072;8.804;2023-05-14T08:16:51;17.30;99.90
8910;DHT22;4490;49.072;8.804;2023-05-14T08:19:16;17.40;99.70
8910;DHT22;4490;49.072;8.804;2023-05-14T08:21:42;17.50;99.90
8910;DHT22;4490;49.072;8.804;2023-05-14T08:24:07;17.60;99.90
8910;DHT22;4490;49.072;8.804;2023-05-14T08:26:33;17.70;99.50
8910;DHT22;4490;49.072;8.804;2023-05-14T08:28:58;17.80;97.90
8910;DHT22;4490;49.072;8.804;2023-05-14T08:31:24;17.90;97.10
8910;DHT22;4490;49.072;8.804;2023-05-14T08:33:50;17.90;97.10
8910;DHT22;4490;49.072;8.804;2023-05-14T08:36:15;18.10;98.90
8910;DHT22;4490;49.072;8.804;2023-05-14T08:38:41;18.20;97.50
8910;DHT22;4490;49.072;8.804;2023-05-14T08:41:07;18.40;96.80
8910;DHT22;4490;49.072;8.804;2023-05-14T08:46:24;18.80;94.50
8910;DHT22;4490;49.072;8.804;2023-05-14T08:48:56;18.90;93.90
8910;DHT22;4490;49.072;8.804;2023-05-14T08:51:25;19.00;93.50
8910;DHT22;4490;49.072;8.804;2023-05-14T08:53:52;19.20;91.50
8910;DHT22;4490;49.072;8.804;2023-05-14T08:56:18;19.20;90.70
8910;DHT22;4490;49.072;8.804;2023-05-14T08:58:44;19.30;90.70
8910;DHT22;4490;49.072;8.804;2023-05-14T09:01:09;19.50;90.50
8910;DHT22;4490;49.072;8.804;2023-05-14T09:03:36;19.50;90.40
8910;DHT22;4490;49.072;8.804;2023-05-14T09:06:03;19.60;90.20
8910;DHT22;4490;49.072;8.804;2023-05-14T09:08:30;19.70;89.70
8910;DHT22;4490;49.072;8.804;2023-05-14T09:10:55;19.90;90.60
8910;DHT22;4490;49.072;8.804;2023-05-14T09:13:21;19.90;90.80
8910;DHT22;4490;49.072;8.804;2023-05-14T09:15:47;20.10;89.70
8910;DHT22;4490;49.072;8.804;2023-05-14T09:18:14;20.30;90.00
8910;DHT22;4490;49.072;8.804;2023-05-14T09:20:40;20.30;89.30
8910;DHT22;4490;49.072;8.804;2023-05-14T09:23:05;20.30;87.40
8910;DHT22;4490;49.072;8.804;2023-05-14T09:25:31;20.30;87.40
8910;DHT22;4490;49.072;8.804;2023-05-14T09:27:57;20.20;86.90
8910;DHT22;4490;49.072;8.804;2023-05-14T09:30:24;20.10;86.50
8910;DHT22;4490;49.072;8.804;2023-05-14T09:32:53;19.90;87.00
8910;DHT22;4490;49.072;8.804;2023-05-14T09:35:23;19.80;87.70
8910;DHT22;4490;49.072;8.804;2023-05-14T09:37:51;19.70;88.00
8910;DHT22;4490;49.072;8.804;2023-05-14T09:40:19;19.70;87.90
8910;DHT22;4490;49.072;8.804;2023-05-14T09:42:45;19.60;87.60
8910;DHT22;4490;49.072;8.804;2023-05-14T09:45:12;19.50;87.70
8910;DHT22;4490;49.072;8.804;2023-05-14T09:47:38;19.40;87.90
8910;DHT22;4490;49.072;8.804;2023-05-14T09:50:05;19.40;87.70
8910;DHT22;4490;49.072;8.804;2023-05-14T09:52:31;19.30;87.40
8910;DHT22;4490;49.072;8.804;2023-05-14T09:54:57;19.20;87.60
8910;DHT22;4490;49.072;8.804;2023-05-14T09:57:23;19.10;88.30
8910;DHT22;4490;49.072;8.804;2023-05-14T09:59:48;19.10;88.90
8910;DHT22;4490;49.072;8.804;2023-05-14T10:02:37;19.00;89.40
8910;DHT22;4490;49.072;8.804;2023-05-14T10:05:06;19.00;89.70
8910;DHT22;4490;49.072;8.804;2023-05-14T10:07:58;18.90;89.20
8910;DHT22;4490;49.072;8.804;2023-05-14T10:10:26;18.90;90.10
8910;DHT22;4490;49.072;8.804;2023-05-14T10:13:00;18.90;90.20
8910;DHT22;4490;49.072;8.804;2023-05-14T10:15:48;18.90;90.50
8910;DHT22;4490;49.072;8.804;2023-05-14T10:18:18;19.00;90.80
8910;DHT22;4490;49.072;8.804;2023-05-14T10:21:12;19.00;91.00
8910;DHT22;4490;49.072;8.804;2023-05-14T10:23:37;19.00;90.80
8910;DHT22;4490;49.072;8.804;2023-05-14T10:26:04;19.00;90.50
8910;DHT22;4490;49.072;8.804;2023-05-14T10:28:31;19.00;90.80
8910;DHT22;4490;49.072;8.804;2023-05-14T10:30:58;19.10;90.50
8910;DHT22;4490;49.072;8.804;2023-05-14T10:33:24;19.10;90.50
8910;DHT22;4490;49.072;8.804;2023-05-14T10:36:04;19.20;90.10
8910;DHT22;4490;49.072;8.804;2023-05-14T10:38:36;19.20;90.20
8910;DHT22;4490;49.072;8.804;2023-05-14T10:41:10;19.30;90.90
8910;DHT22;4490;49.072;8.804;2023-05-14T10:43:38;19.30;90.30
8910;DHT22;4490;49.072;8.804;2023-05-14T10:46:05;19.30;89.60
8910;DHT22;4490;49.072;8.804;2023-05-14T10:48:32;19.30;89.70
8910;DHT22;4490;49.072;8.804;2023-05-14T10:51:00;19.40;89.00
8910;DHT22;4490;49.072;8.804;2023-05-14T10:53:38;19.40;89.00
8910;DHT22;4490;49.072;8.804;2023-05-14T10:56:08;19.60;89.80
8910;DHT22;4490;49.072;8.804;2023-05-14T10:58:36;19.70;90.10
8910;DHT22;4490;49.072;8.804;2023-05-14T11:01:02;19.80;90.20
8910;DHT22;4490;49.072;8.804;2023-05-14T11:03:30;19.80;88.90
8910;DHT22;4490;49.072;8.804;2023-05-14T11:05:56;20.00;88.40
8910;DHT22;4490;49.072;8.804;2023-05-14T11:08:25;20.10;88.40
8910;DHT22;4490;49.072;8.804;2023-05-14T11:10:51;20.10;87.50
8910;DHT22;4490;49.072;8.804;2023-05-14T11:13:18;20.10;86.30
8910;DHT22;4490;49.072;8.804;2023-05-14T11:15:45;20.10;85.70
8910;DHT22;4490;49.072;8.804;2023-05-14T11:18:12;20.20;83.90
8910;DHT22;4490;49.072;8.804;2023-05-14T11:20:38;20.30;84.20
8910;DHT22;4490;49.072;8.804;2023-05-14T11:23:04;20.40;83.60
8910;DHT22;4490;49.072;8.804;2023-05-14T11:25:30;20.50;82.30
8910;DHT22;4490;49.072;8.804;2023-05-14T11:27:56;20.60;81.40
8910;DHT22;4490;49.072;8.804;2023-05-14T11:30:23;20.70;81.90
8910;DHT22;4490;49.072;8.804;2023-05-14T11:32:49;20.80;81.50
8910;DHT22;4490;49.072;8.804;2023-05-14T11:35:16;21.00;81.40
8910;DHT22;4490;49.072;8.804;2023-05-14T11:37:42;21.10;80.40
8910;DHT22;4490;49.072;8.804;2023-05-14T11:40:14;21.30;79.40
8910;DHT22;4490;49.072;8.804;2023-05-14T11:42:40;21.40;78.50
8910;DHT22;4490;49.072;8.804;2023-05-14T11:45:09;21.60;78.60
8910;DHT22;4490;49.072;8.804;2023-05-14T11:47:36;21.90;80.00
8910;DHT22;4490;49.072;8.804;2023-05-14T11:50:02;22.30;79.10
8910;DHT22;4490;49.072;8.804;2023-05-14T11:52:28;22.60;78.00
8910;DHT22;4490;49.072;8.804;2023-05-14T11:54:53;22.80;76.70
8910;DHT22;4490;49.072;8.804;2023-05-14T11:57:20;22.90;76.00
8910;DHT22;4490;49.072;8.804;2023-05-14T11:59:47;23.00;76.10
8910;DHT22;4490;49.072;8.804;2023-05-14T12:02:17;22.90;74.30
8910;DHT22;4490;49.072;8.804;2023-05-14T12:04:49;22.90;72.80
8910;DHT22;4490;49.072;8.804;2023-05-14T12:07:15;22.80;73.80
8910;DHT22;4490;49.072;8.804;2023-05-14T12:09:46;22.70;73.80
8910;DHT22;4490;49.072;8.804;2023-05-14T12:12:17;22.50;73.80
8910;DHT22;4490;49.072;8.804;2023-05-14T12:14:43;22.40;74.60
8910;DHT22;4490;49.072;8.804;2023-05-14T12:17:21;22.40;75.30
8910;DHT22;4490;49.072;8.804;2023-05-14T12:19:48;22.40;73.80
8910;DHT22;4490;49.072;8.804;2023-05-14T12:22:21;22.50;75.20
8910;DHT22;4490;49.072;8.804;2023-05-14T12:24:54;22.80;75.80
8910;DHT22;4490;49.072;8.804;2023-05-14T12:27:22;23.10;74.60
8910;DHT22;4490;49.072;8.804;2023-05-14T12:29:49;23.30;74.40
8910;DHT22;4490;49.072;8.804;2023-05-14T12:32:17;23.40;73.40
8910;DHT22;4490;49.072;8.804;2023-05-14T12:34:44;23.30;72.70
8910;DHT22;4490;49.072;8.804;2023-05-14T12:37:09;23.30;73.60
8910;DHT22;4490;49.072;8.804;2023-05-14T12:39:35;23.20;72.80
8910;DHT22;4490;49.072;8.804;2023-05-14T12:42:01;23.10;72.80
8910;DHT22;4490;49.072;8.804;2023-05-14T12:44:27;22.90;73.00
8910;DHT22;4490;49.072;8.804;2023-05-14T12:46:53;22.80;73.60
8910;DHT22;4490;49.072;8.804;2023-05-14T12:49:18;22.70;75.00
8910;DHT22;4490;49.072;8.804;2023-05-14T12:51:44;22.80;74.70
8910;DHT22;4490;49.072;8.804;2023-05-14T12:54:11;22.80;73.80
8910;DHT22;4490;49.072;8.804;2023-05-14T12:56:37;22.80;73.40
8910;DHT22;4490;49.072;8.804;2023-05-14T12:59:03;22.70;73.20
8910;DHT22;4490;49.072;8.804;2023-05-14T13:01:29;22.70;74.00
8910;DHT22;4490;49.072;8.804;2023-05-14T13:03:54;22.60;74.80
8910;DHT22;4490;49.072;8.804;2023-05-14T13:06:20;22.60;75.60
8910;DHT22;4490;49.072;8.804;2023-05-14T13:08:46;22.70;74.20
8910;DHT22;4490;49.072;8.804;2023-05-14T13:11:12;23.00;73.50
8910;DHT22;4490;49.072;8.804;2023-05-14T13:13:37;23.30;74.50
8910;DHT22;4490;49.072;8.804;2023-05-14T13:16:03;23.40;73.90
8910;DHT22;4490;49.072;8.804;2023-05-14T13:18:29;23.50;73.20
8910;DHT22;4490;49.072;8.804;2023-05-14T13:20:54;23.50;73.50
8910;DHT22;4490;49.072;8.804;2023-05-14T13:23:20;23.60;73.40
8910;DHT22;4490;49.072;8.804;2023-05-14T13:25:47;23.60;73.30
8910;DHT22;4490;49.072;8.804;2023-05-14T13:28:12;23.70;74.10
8910;DHT22;4490;49.072;8.804;2023-05-14T13:30:38;23.60;73.40
8910;DHT22;4490;49.072;8.804;2023-05-14T13:33:04;23.40;72.20
8910;DHT22;4490;49.072;8.804;2023-05-14T13:35:30;23.30;72.10
8910;DHT22;4490;49.072;8.804;2023-05-14T13:37:55;23.20;72.20
8910;DHT22;4490;49.072;8.804;2023-05-14T13:40:21;23.10;72.70
8910;DHT22;4490;49.072;8.804;2023-05-14T13:42:46;22.90;72.90
8910;DHT22;4490;49.072;8.804;2023-05-14T13:45:12;22.70;73.20
8910;DHT22;4490;49.072;8.804;2023-05-14T13:47:38;22.50;73.60
8910;DHT22;4490;49.072;8.804;2023-05-14T13:50:04;22.40;73.50
8910;DHT22;4490;49.072;8.804;2023-05-14T13:52:30;22.20;73.60
8910;DHT22;4490;49.072;8.804;2023-05-14T13:54:55;22.00;74.00
8910;DHT22;4490;49.072;8.804;2023-05-14T13:57:21;21.80;74.00
8910;DHT22;4490;49.072;8.804;2023-05-14T13:59:47;21.70;74.20
8910;DHT22;4490;49.072;8.804;2023-05-14T14:02:14;21.60;74.40
8910;DHT22;4490;49.072;8.804;2023-05-14T14:04:39;21.60;75.40
8910;DHT22;4490;49.072;8.804;2023-05-14T14:07:05;21.50;74.60
8910;DHT22;4490;49.072;8.804;2023-05-14T14:09:31;21.60;74.80
8910;DHT22;4490;49.072;8.804;2023-05-14T14:12:01;21.60;75.50
8910;DHT22;4490;49.072;8.804;2023-05-14T14:14:27;21.70;75.80
8910;DHT22;4490;49.072;8.804;2023-05-14T14:16:52;21.80;76.50
8910;DHT22;4490;49.072;8.804;2023-05-14T14:19:18;22.00;76.80
8910;DHT22;4490;49.072;8.804;2023-05-14T14:21:43;22.20;76.30
8910;DHT22;4490;49.072;8.804;2023-05-14T14:24:09;22.30;76.70
8910;DHT22;4490;49.072;8.804;2023-05-14T14:26:35;22.40;76.70
8910;DHT22;4490;49.072;8.804;2023-05-14T14:29:00;22.40;76.10
8910;DHT22;4490;49.072;8.804;2023-05-14T14:31:26;22.50;75.20
8910;DHT22;4490;49.072;8.804;2023-05-14T14:33:52;22.50;74.70
8910;DHT22;4490;49.072;8.804;2023-05-14T14:36:17;22.60;74.70
8910;DHT22;4490;49.072;8.804;2023-05-14T14:38:43;22.60;74.30
8910;DHT22;4490;49.072;8.804;2023-05-14T14:41:08;22.60;74.20
8910;DHT22;4490;49.072;8.804;2023-05-14T14:43:36;22.50;73.80
8910;DHT22;4490;49.072;8.804;2023-05-14T14:46:02;22.50;73.70
8910;DHT22;4490;49.072;8.804;2023-05-14T14:48:33;22.50;73.30
8910;DHT22;4490;49.072;8.804;2023-05-14T14:51:02;22.50;72.00
8910;DHT22;4490;49.072;8.804;2023-05-14T14:53:29;22.40;72.10
8910;DHT22;4490;49.072;8.804;2023-05-14T14:55:55;22.30;72.30
8910;DHT22;4490;49.072;8.804;2023-05-14T14:58:21;22.30;72.80
8910;DHT22;4490;49.072;8.804;2023-05-14T15:00:50;22.20;72.70
8910;DHT22;4490;49.072;8.804;2023-05-14T15:03:16;22.20;73.60
8910;DHT22;4490;49.072;8.804;2023-05-14T15:05:42;22.10;73.10
8910;DHT22;4490;49.072;8.804;2023-05-14T15:08:08;22.00;73.40
8910;DHT22;4490;49.072;8.804;2023-05-14T15:10:34;22.00;72.70
8910;DHT22;4490;49.072;8.804;2023-05-14T15:13:02;22.00;72.80
8910;DHT22;4490;49.072;8.804;2023-05-14T15:15:28;22.00;73.60
8910;DHT22;4490;49.072;8.804;2023-05-14T15:17:54;22.00;73.30
8910;DHT22;4490;49.072;8.804;2023-05-14T15:20:20;21.90;73.00
8910;DHT22;4490;49.072;8.804;2023-05-14T15:22:46;21.90;73.60
8910;DHT22;4490;49.072;8.804;2023-05-14T15:25:11;21.80;72.80
8910;DHT22;4490;49.072;8.804;2023-05-14T15:27:37;21.70;72.50
8910;DHT22;4490;49.072;8.804;2023-05-14T15:30:03;21.70;72.50
8910;DHT22;4490;49.072;8.804;2023-05-14T15:32:29;21.70;72.30
8910;DHT22;4490;49.072;8.804;2023-05-14T15:34:54;21.60;72.00
8910;DHT22;4490;49.072;8.804;2023-05-14T15:37:22;21.50;72.00
8910;DHT22;4490;49.072;8.804;2023-05-14T15:39:48;21.40;71.60
8910;DHT22;4490;49.072;8.804;2023-05-14T15:42:13;21.30;72.00
8910;DHT22;4490;49.072;8.804;2023-05-14T15:44:39;21.30;73.20
8910;DHT22;4490;49.072;8.804;2023-05-14T15:47:05;21.20;73.50
8910;DHT22;4490;49.072;8.804;2023-05-14T15:49:30;21.20;73.50
8910;DHT22;4490;49.072;8.804;2023-05-14T15:51:56;21.20;72.90
8910;DHT22;4490;49.072;8.804;2023-05-14T15:54:22;21.20;71.90
8910;DHT22;4490;49.072;8.804;2023-05-14T15:56:47;21.20;72.70
8910;DHT22;4490;49.072;8.804;2023-05-14T15:59:13;21.10;73.20
8910;DHT22;4490;49.072;8.804;2023-05-14T16:01:40;21.10;73.40
8910;DHT22;4490;49.072;8.804;2023-05-14T16:04:06;21.00;73.00